Weather at Antalya International Airport

Public forecast

Using degrees Celsius for public forecast. Weather courtesy of forecast.io.

Current aviation weather report (METAR) for Antalya International Airport

Retrieved 2020/11/01 01:20 UTC (8 minutes ago):

LTAI 010120Z 33007KT CAVOK 15/09 Q1013 NOSIG RMK RWY18C 33006KT RWY36R 32006KT RWY18L 33007KT

Aviation forecast (TAF) for Antalya International Airport

Retrieved 2020-11-01 00:03 UTC (1 hour ago):

TAF LTAI 312240Z 0100/0124 34009KT CAVOK BECMG 0106/0110 FEW030 BECMG 0115/0118 CAVOK